sensor_id;sensor_type;location;lat;lon;timestamp;pressure;altitude;pressure_sealevel;temperature;humidity
12073;BME280;6098;49.004;8.372;2023-04-15T00:00:14;99411.03;;;8.86;66.04
12073;BME280;6098;49.004;8.372;2023-04-15T00:15:03;99403.85;;;8.71;67.34
12073;BME280;6098;49.004;8.372;2023-04-15T00:29:55;99385.91;;;8.49;67.90
12073;BME280;6098;49.004;8.372;2023-04-15T00:44:45;99388.59;;;8.30;69.33
12073;BME280;6098;49.004;8.372;2023-04-15T00:59:35;99384.93;;;8.13;70.35
12073;BME280;6098;49.004;8.372;2023-04-15T01:14:25;99382.39;;;8.11;66.10
12073;BME280;6098;49.004;8.372;2023-04-15T08:53:43;99495.70;;;11.87;55.98
12073;BME280;6098;49.004;8.372;2023-04-15T09:08:38;99503.95;;;12.34;54.53
12073;BME280;6098;49.004;8.372;2023-04-15T09:23:29;99510.55;;;12.57;54.03
12073;BME280;6098;49.004;8.372;2023-04-15T09:38:21;99532.31;;;12.99;53.98
12073;BME280;6098;49.004;8.372;2023-04-15T09:53:20;99545.84;;;13.38;54.86
12073;BME280;6098;49.004;8.372;2023-04-15T10:23:06;99556.15;;;13.91;53.86
12073;BME280;6098;49.004;8.372;2023-04-15T13:41:58;99691.22;;;16.11;41.05
12073;BME280;6098;49.004;8.372;2023-04-15T13:56:48;99711.14;;;15.88;42.58
12073;BME280;6098;49.004;8.372;2023-04-15T14:11:40;99724.67;;;15.54;43.71
12073;BME280;6098;49.004;8.372;2023-04-15T14:26:34;99742.09;;;15.14;44.18
12073;BME280;6098;49.004;8.372;2023-04-15T14:41:27;99770.45;;;15.10;41.73
12073;BME280;6098;49.004;8.372;2023-04-15T14:56:29;99784.12;;;15.11;41.37
12073;BME280;6098;49.004;8.372;2023-04-15T15:11:20;99804.58;;;15.12;40.60
12073;BME280;6098;49.004;8.372;2023-04-15T15:26:11;99819.69;;;14.99;39.97
12073;BME280;6098;49.004;8.372;2023-04-15T15:41:04;99827.73;;;14.98;41.37
12073;BME280;6098;49.004;8.372;2023-04-15T15:55:54;99860.98;;;14.93;41.29
12073;BME280;6098;49.004;8.372;2023-04-15T16:10:45;99906.80;;;14.51;48.91
12073;BME280;6098;49.004;8.372;2023-04-15T16:25:38;99947.72;;;13.84;56.30
12073;BME280;6098;49.004;8.372;2023-04-15T16:40:27;99977.19;;;13.44;61.81
12073;BME280;6098;49.004;8.372;2023-04-15T16:55:17;100010.16;;;13.10;64.35
12073;BME280;6098;49.004;8.372;2023-04-15T17:10:06;100049.84;;;12.64;71.23
12073;BME280;6098;49.004;8.372;2023-04-15T17:25:00;100067.09;;;12.14;74.76
12073;BME280;6098;49.004;8.372;2023-04-15T17:39:50;100089.64;;;11.88;76.70
12073;BME280;6098;49.004;8.372;2023-04-15T17:54:41;100114.99;;;11.67;78.22
12073;BME280;6098;49.004;8.372;2023-04-15T18:09:32;100141.84;;;11.42;80.83
12073;BME280;6098;49.004;8.372;2023-04-15T18:24:22;100177.39;;;11.19;83.04
12073;BME280;6098;49.004;8.372;2023-04-15T18:39:15;100193.47;;;11.15;83.18
12073;BME280;6098;49.004;8.372;2023-04-15T18:54:06;100211.30;;;11.01;83.43
12073;BME280;6098;49.004;8.372;2023-04-15T19:08:57;100229.85;;;11.02;85.06
12073;BME280;6098;49.004;8.372;2023-04-15T19:23:51;100240.77;;;11.04;87.70
12073;BME280;6098;49.004;8.372;2023-04-15T19:38:42;100254.77;;;10.77;88.64
12073;BME280;6098;49.004;8.372;2023-04-15T19:53:35;100264.83;;;10.69;88.60
12073;BME280;6098;49.004;8.372;2023-04-15T20:08:26;100275.73;;;10.62;90.18
12073;BME280;6098;49.004;8.372;2023-04-15T20:23:17;100285.48;;;10.72;91.82
12073;BME280;6098;49.004;8.372;2023-04-15T20:38:09;100290.34;;;10.72;92.42
12073;BME280;6098;49.004;8.372;2023-04-15T20:53:00;100292.34;;;10.77;94.21
12073;BME280;6098;49.004;8.372;2023-04-15T21:07:51;100305.97;;;10.68;93.14
12073;BME280;6098;49.004;8.372;2023-04-15T21:22:42;100318.80;;;10.67;93.08
12073;BME280;6098;49.004;8.372;2023-04-15T21:37:33;100335.14;;;10.57;93.97
12073;BME280;6098;49.004;8.372;2023-04-15T21:52:24;100346.48;;;10.49;95.77
12073;BME280;6098;49.004;8.372;2023-04-15T22:07:15;100354.74;;;10.41;97.22
12073;BME280;6098;49.004;8.372;2023-04-15T22:22:06;100362.38;;;10.38;97.70
12073;BME280;6098;49.004;8.372;2023-04-15T22:36:57;100374.45;;;10.34;96.72
12073;BME280;6098;49.004;8.372;2023-04-15T22:51:50;100392.92;;;10.36;98.36
12073;BME280;6098;49.004;8.372;2023-04-15T23:06:41;100406.48;;;10.40;98.70
12073;BME280;6098;49.004;8.372;2023-04-15T23:21:32;100409.20;;;10.37;97.55
12073;BME280;6098;49.004;8.372;2023-04-15T23:36:24;100418.46;;;10.38;97.60
12073;BME280;6098;49.004;8.372;2023-04-15T23:51:18;100422.08;;;10.36;97.84
